sensor_id;sensor_type;location;lat;lon;timestamp;P1;durP1;ratioP1;P2;durP2;ratioP2
11486;SDS011;10510;47.942;9.442;2022-08-19T00:00:10;29.23;;;22.40;;
11486;SDS011;10510;47.942;9.442;2022-08-19T00:02:14;28.27;;;21.38;;
11486;SDS011;10510;47.942;9.442;2022-08-19T00:04:15;29.42;;;22.25;;
11486;SDS011;10510;47.942;9.442;2022-08-19T00:06:17;27.20;;;21.13;;
11486;SDS011;10510;47.942;9.442;2022-08-19T00:08:17;37.17;;;22.92;;
11486;SDS011;10510;47.942;9.442;2022-08-19T00:10:19;30.50;;;21.25;;
11486;SDS011;10510;47.942;9.442;2022-08-19T00:12:20;30.45;;;21.38;;
11486;SDS011;10510;47.942;9.442;2022-08-19T00:14:20;34.92;;;22.90;;
11486;SDS011;10510;47.942;9.442;2022-08-19T00:16:22;34.72;;;23.80;;
11486;SDS011;10510;47.942;9.442;2022-08-19T00:18:23;37.63;;;25.70;;
11486;SDS011;10510;47.942;9.442;2022-08-19T00:20:24;37.80;;;26.30;;
11486;SDS011;10510;47.942;9.442;2022-08-19T00:22:24;41.88;;;27.20;;
11486;SDS011;10510;47.942;9.442;2022-08-19T00:24:28;44.60;;;27.63;;
11486;SDS011;10510;47.942;9.442;2022-08-19T00:26:29;46.05;;;27.98;;
11486;SDS011;10510;47.942;9.442;2022-08-19T00:28:29;49.30;;;28.52;;
11486;SDS011;10510;47.942;9.442;2022-08-19T00:30:30;45.97;;;28.65;;
11486;SDS011;10510;47.942;9.442;2022-08-19T00:32:30;48.65;;;30.52;;
11486;SDS011;10510;47.942;9.442;2022-08-19T00:34:30;45.13;;;29.75;;
11486;SDS011;10510;47.942;9.442;2022-08-19T00:36:31;46.17;;;29.58;;
11486;SDS011;10510;47.942;9.442;2022-08-19T00:38:33;44.15;;;28.40;;
11486;SDS011;10510;47.942;9.442;2022-08-19T00:40:34;40.50;;;27.30;;
11486;SDS011;10510;47.942;9.442;2022-08-19T00:42:34;42.70;;;27.45;;
11486;SDS011;10510;47.942;9.442;2022-08-19T00:44:35;46.17;;;28.45;;
11486;SDS011;10510;47.942;9.442;2022-08-19T00:46:36;42.15;;;27.63;;
11486;SDS011;10510;47.942;9.442;2022-08-19T00:48:38;37.92;;;25.08;;
11486;SDS011;10510;47.942;9.442;2022-08-19T00:50:39;46.90;;;27.60;;
11486;SDS011;10510;47.942;9.442;2022-08-19T00:52:45;48.67;;;27.33;;
11486;SDS011;10510;47.942;9.442;2022-08-19T00:54:48;43.95;;;26.45;;
11486;SDS011;10510;47.942;9.442;2022-08-19T00:56:49;39.65;;;25.05;;
11486;SDS011;10510;47.942;9.442;2022-08-19T00:58:49;43.00;;;26.63;;
11486;SDS011;10510;47.942;9.442;2022-08-19T01:00:50;44.33;;;27.70;;
11486;SDS011;10510;47.942;9.442;2022-08-19T01:02:50;41.05;;;27.05;;
11486;SDS011;10510;47.942;9.442;2022-08-19T01:04:52;46.20;;;26.55;;
11486;SDS011;10510;47.942;9.442;2022-08-19T01:06:52;44.92;;;26.73;;
11486;SDS011;10510;47.942;9.442;2022-08-19T01:08:53;50.08;;;28.55;;
11486;SDS011;10510;47.942;9.442;2022-08-19T01:10:55;44.75;;;26.60;;
11486;SDS011;10510;47.942;9.442;2022-08-19T01:12:58;42.03;;;26.63;;
11486;SDS011;10510;47.942;9.442;2022-08-19T01:14:59;50.08;;;26.77;;
11486;SDS011;10510;47.942;9.442;2022-08-19T01:17:00;47.38;;;27.15;;
11486;SDS011;10510;47.942;9.442;2022-08-19T01:19:00;46.85;;;28.58;;
11486;SDS011;10510;47.942;9.442;2022-08-19T01:21:07;52.08;;;30.48;;
11486;SDS011;10510;47.942;9.442;2022-08-19T01:23:15;55.22;;;30.42;;
11486;SDS011;10510;47.942;9.442;2022-08-19T01:25:18;53.10;;;33.10;;
11486;SDS011;10510;47.942;9.442;2022-08-19T01:27:21;54.45;;;30.85;;
11486;SDS011;10510;47.942;9.442;2022-08-19T01:29:21;55.13;;;30.75;;
11486;SDS011;10510;47.942;9.442;2022-08-19T01:31:23;48.55;;;31.05;;
11486;SDS011;10510;47.942;9.442;2022-08-19T01:33:25;45.03;;;29.10;;
11486;SDS011;10510;47.942;9.442;2022-08-19T01:35:26;47.42;;;30.27;;
11486;SDS011;10510;47.942;9.442;2022-08-19T01:37:40;52.17;;;30.92;;
11486;SDS011;10510;47.942;9.442;2022-08-19T01:39:42;54.50;;;30.65;;
11486;SDS011;10510;47.942;9.442;2022-08-19T01:41:43;51.83;;;29.23;;
11486;SDS011;10510;47.942;9.442;2022-08-19T01:43:43;52.53;;;30.55;;
11486;SDS011;10510;47.942;9.442;2022-08-19T01:45:44;55.78;;;32.50;;
11486;SDS011;10510;47.942;9.442;2022-08-19T01:47:46;51.38;;;32.08;;
11486;SDS011;10510;47.942;9.442;2022-08-19T01:49:46;60.30;;;30.52;;
11486;SDS011;10510;47.942;9.442;2022-08-19T01:51:47;50.35;;;29.70;;
11486;SDS011;10510;47.942;9.442;2022-08-19T01:53:49;52.28;;;28.58;;
11486;SDS011;10510;47.942;9.442;2022-08-19T01:55:50;56.47;;;30.40;;
11486;SDS011;10510;47.942;9.442;2022-08-19T01:57:52;48.92;;;30.55;;
11486;SDS011;10510;47.942;9.442;2022-08-19T01:59:58;48.83;;;29.98;;
11486;SDS011;10510;47.942;9.442;2022-08-19T02:01:59;49.38;;;28.83;;
11486;SDS011;10510;47.942;9.442;2022-08-19T02:03:59;55.40;;;30.23;;
11486;SDS011;10510;47.942;9.442;2022-08-19T02:06:01;54.05;;;30.77;;
11486;SDS011;10510;47.942;9.442;2022-08-19T02:08:03;53.67;;;29.83;;
11486;SDS011;10510;47.942;9.442;2022-08-19T02:10:08;53.58;;;29.90;;
11486;SDS011;10510;47.942;9.442;2022-08-19T02:12:10;52.47;;;31.15;;
11486;SDS011;10510;47.942;9.442;2022-08-19T02:14:11;56.50;;;32.10;;
11486;SDS011;10510;47.942;9.442;2022-08-19T02:16:11;53.65;;;30.60;;
11486;SDS011;10510;47.942;9.442;2022-08-19T02:18:11;61.30;;;31.00;;
11486;SDS011;10510;47.942;9.442;2022-08-19T02:20:12;54.45;;;30.25;;
11486;SDS011;10510;47.942;9.442;2022-08-19T02:22:13;55.67;;;32.25;;
11486;SDS011;10510;47.942;9.442;2022-08-19T02:24:13;57.60;;;31.45;;
11486;SDS011;10510;47.942;9.442;2022-08-19T02:26:13;56.13;;;32.13;;
11486;SDS011;10510;47.942;9.442;2022-08-19T02:28:14;59.03;;;32.25;;
11486;SDS011;10510;47.942;9.442;2022-08-19T02:30:15;63.45;;;34.05;;
11486;SDS011;10510;47.942;9.442;2022-08-19T02:32:17;69.15;;;34.58;;
11486;SDS011;10510;47.942;9.442;2022-08-19T02:34:19;60.83;;;34.10;;
11486;SDS011;10510;47.942;9.442;2022-08-19T02:36:19;63.85;;;33.95;;
11486;SDS011;10510;47.942;9.442;2022-08-19T02:38:20;64.20;;;33.75;;
11486;SDS011;10510;47.942;9.442;2022-08-19T02:40:27;60.28;;;34.92;;
11486;SDS011;10510;47.942;9.442;2022-08-19T02:42:28;61.40;;;33.95;;
11486;SDS011;10510;47.942;9.442;2022-08-19T02:44:29;63.90;;;33.45;;
11486;SDS011;10510;47.942;9.442;2022-08-19T02:46:30;64.70;;;32.80;;
11486;SDS011;10510;47.942;9.442;2022-08-19T02:48:32;61.60;;;32.88;;
11486;SDS011;10510;47.942;9.442;2022-08-19T02:50:32;56.88;;;32.45;;
11486;SDS011;10510;47.942;9.442;2022-08-19T02:52:33;58.25;;;31.60;;
11486;SDS011;10510;47.942;9.442;2022-08-19T02:54:34;60.03;;;31.35;;
11486;SDS011;10510;47.942;9.442;2022-08-19T02:56:35;62.95;;;31.88;;
11486;SDS011;10510;47.942;9.442;2022-08-19T02:58:37;64.47;;;33.97;;
11486;SDS011;10510;47.942;9.442;2022-08-19T03:00:44;63.17;;;31.95;;
11486;SDS011;10510;47.942;9.442;2022-08-19T03:02:46;56.63;;;31.45;;
11486;SDS011;10510;47.942;9.442;2022-08-19T03:04:48;74.00;;;33.42;;
11486;SDS011;10510;47.942;9.442;2022-08-19T03:06:48;66.22;;;34.15;;
11486;SDS011;10510;47.942;9.442;2022-08-19T03:08:49;68.70;;;36.33;;
11486;SDS011;10510;47.942;9.442;2022-08-19T03:10:49;66.30;;;34.92;;
11486;SDS011;10510;47.942;9.442;2022-08-19T03:12:51;66.70;;;35.42;;
11486;SDS011;10510;47.942;9.442;2022-08-19T03:14:51;74.47;;;36.50;;
11486;SDS011;10510;47.942;9.442;2022-08-19T03:16:52;64.72;;;34.25;;
11486;SDS011;10510;47.942;9.442;2022-08-19T03:18:53;76.18;;;36.78;;
11486;SDS011;10510;47.942;9.442;2022-08-19T03:20:56;75.75;;;36.95;;
11486;SDS011;10510;47.942;9.442;2022-08-19T03:22:56;74.55;;;37.72;;
11486;SDS011;10510;47.942;9.442;2022-08-19T03:24:56;75.55;;;37.00;;
11486;SDS011;10510;47.942;9.442;2022-08-19T03:26:57;77.45;;;36.63;;
11486;SDS011;10510;47.942;9.442;2022-08-19T03:29:01;77.57;;;37.53;;
11486;SDS011;10510;47.942;9.442;2022-08-19T03:31:04;77.35;;;37.58;;
11486;SDS011;10510;47.942;9.442;2022-08-19T03:33:10;73.88;;;37.42;;
11486;SDS011;10510;47.942;9.442;2022-08-19T03:35:13;77.53;;;37.67;;
11486;SDS011;10510;47.942;9.442;2022-08-19T03:37:14;78.53;;;37.35;;
11486;SDS011;10510;47.942;9.442;2022-08-19T03:39:14;71.85;;;36.67;;
11486;SDS011;10510;47.942;9.442;2022-08-19T03:41:16;77.93;;;37.95;;
11486;SDS011;10510;47.942;9.442;2022-08-19T03:43:19;71.95;;;36.25;;
11486;SDS011;10510;47.942;9.442;2022-08-19T03:45:19;69.25;;;35.10;;
11486;SDS011;10510;47.942;9.442;2022-08-19T03:47:19;80.18;;;38.55;;
11486;SDS011;10510;47.942;9.442;2022-08-19T03:49:20;77.93;;;37.85;;
11486;SDS011;10510;47.942;9.442;2022-08-19T03:53:31;91.78;;;42.85;;
11486;SDS011;10510;47.942;9.442;2022-08-19T03:55:32;94.50;;;39.65;;
11486;SDS011;10510;47.942;9.442;2022-08-19T03:57:33;89.25;;;40.65;;
11486;SDS011;10510;47.942;9.442;2022-08-19T03:59:35;80.65;;;38.50;;
11486;SDS011;10510;47.942;9.442;2022-08-19T04:01:36;74.72;;;37.22;;
11486;SDS011;10510;47.942;9.442;2022-08-19T04:03:37;78.00;;;38.15;;
11486;SDS011;10510;47.942;9.442;2022-08-19T04:05:38;76.72;;;35.33;;
11486;SDS011;10510;47.942;9.442;2022-08-19T04:07:38;78.63;;;35.80;;
11486;SDS011;10510;47.942;9.442;2022-08-19T04:09:38;78.97;;;37.10;;
11486;SDS011;10510;47.942;9.442;2022-08-19T04:11:40;82.00;;;36.80;;
11486;SDS011;10510;47.942;9.442;2022-08-19T04:13:45;88.43;;;36.42;;
11486;SDS011;10510;47.942;9.442;2022-08-19T04:15:46;78.05;;;35.88;;
11486;SDS011;10510;47.942;9.442;2022-08-19T04:17:46;78.95;;;38.05;;
11486;SDS011;10510;47.942;9.442;2022-08-19T04:19:46;81.22;;;37.95;;
11486;SDS011;10510;47.942;9.442;2022-08-19T04:21:48;93.35;;;39.83;;
11486;SDS011;10510;47.942;9.442;2022-08-19T04:23:51;87.40;;;40.08;;
11486;SDS011;10510;47.942;9.442;2022-08-19T04:25:52;84.57;;;39.83;;
11486;SDS011;10510;47.942;9.442;2022-08-19T04:27:52;85.85;;;39.75;;
11486;SDS011;10510;47.942;9.442;2022-08-19T04:29:52;99.43;;;39.67;;
11486;SDS011;10510;47.942;9.442;2022-08-19T04:31:54;100.65;;;41.22;;
11486;SDS011;10510;47.942;9.442;2022-08-19T04:33:56;95.18;;;39.47;;
11486;SDS011;10510;47.942;9.442;2022-08-19T04:35:58;83.70;;;37.30;;
11486;SDS011;10510;47.942;9.442;2022-08-19T04:37:58;91.22;;;37.28;;
11486;SDS011;10510;47.942;9.442;2022-08-19T04:39:59;114.53;;;42.47;;
11486;SDS011;10510;47.942;9.442;2022-08-19T04:42:18;127.38;;;42.58;;
11486;SDS011;10510;47.942;9.442;2022-08-19T04:44:37;90.35;;;37.90;;
11486;SDS011;10510;47.942;9.442;2022-08-19T04:46:37;91.40;;;38.20;;
11486;SDS011;10510;47.942;9.442;2022-08-19T04:48:38;76.50;;;36.05;;
11486;SDS011;10510;47.942;9.442;2022-08-19T04:50:40;85.15;;;36.83;;
11486;SDS011;10510;47.942;9.442;2022-08-19T04:52:41;77.45;;;35.90;;
11486;SDS011;10510;47.942;9.442;2022-08-19T04:54:44;80.70;;;36.83;;
11486;SDS011;10510;47.942;9.442;2022-08-19T04:56:44;82.80;;;36.13;;
11486;SDS011;10510;47.942;9.442;2022-08-19T04:58:45;72.57;;;35.42;;
11486;SDS011;10510;47.942;9.442;2022-08-19T05:00:45;81.20;;;37.50;;
11486;SDS011;10510;47.942;9.442;2022-08-19T05:02:46;79.45;;;36.90;;
11486;SDS011;10510;47.942;9.442;2022-08-19T05:04:46;77.32;;;36.42;;
11486;SDS011;10510;47.942;9.442;2022-08-19T05:06:48;77.68;;;37.00;;
11486;SDS011;10510;47.942;9.442;2022-08-19T05:08:49;73.18;;;35.88;;
11486;SDS011;10510;47.942;9.442;2022-08-19T05:10:50;71.55;;;36.80;;
11486;SDS011;10510;47.942;9.442;2022-08-19T05:12:51;83.10;;;37.92;;
11486;SDS011;10510;47.942;9.442;2022-08-19T05:14:51;81.65;;;39.42;;
11486;SDS011;10510;47.942;9.442;2022-08-19T05:16:51;78.32;;;37.17;;
11486;SDS011;10510;47.942;9.442;2022-08-19T05:18:52;78.63;;;37.63;;
11486;SDS011;10510;47.942;9.442;2022-08-19T05:21:13;74.55;;;35.72;;
11486;SDS011;10510;47.942;9.442;2022-08-19T05:23:35;73.88;;;35.13;;
11486;SDS011;10510;47.942;9.442;2022-08-19T05:25:38;82.13;;;36.13;;
11486;SDS011;10510;47.942;9.442;2022-08-19T05:27:40;76.00;;;36.05;;
11486;SDS011;10510;47.942;9.442;2022-08-19T05:29:41;74.53;;;36.05;;
11486;SDS011;10510;47.942;9.442;2022-08-19T05:31:42;72.25;;;36.33;;
11486;SDS011;10510;47.942;9.442;2022-08-19T05:33:43;73.82;;;36.97;;
11486;SDS011;10510;47.942;9.442;2022-08-19T05:35:43;76.10;;;37.33;;
11486;SDS011;10510;47.942;9.442;2022-08-19T05:37:44;74.93;;;35.22;;
11486;SDS011;10510;47.942;9.442;2022-08-19T05:39:44;78.90;;;37.03;;
11486;SDS011;10510;47.942;9.442;2022-08-19T05:41:45;70.60;;;34.33;;
11486;SDS011;10510;47.942;9.442;2022-08-19T05:43:48;69.30;;;34.83;;
11486;SDS011;10510;47.942;9.442;2022-08-19T05:45:50;72.05;;;36.58;;
11486;SDS011;10510;47.942;9.442;2022-08-19T05:47:50;70.47;;;34.30;;
11486;SDS011;10510;47.942;9.442;2022-08-19T05:49:50;81.90;;;36.72;;
11486;SDS011;10510;47.942;9.442;2022-08-19T05:51:51;71.82;;;35.60;;
11486;SDS011;10510;47.942;9.442;2022-08-19T05:53:51;73.90;;;35.70;;
11486;SDS011;10510;47.942;9.442;2022-08-19T05:55:51;72.38;;;37.13;;
11486;SDS011;10510;47.942;9.442;2022-08-19T05:57:52;76.03;;;37.45;;
11486;SDS011;10510;47.942;9.442;2022-08-19T05:59:52;67.20;;;34.53;;
11486;SDS011;10510;47.942;9.442;2022-08-19T06:01:53;74.47;;;36.60;;
11486;SDS011;10510;47.942;9.442;2022-08-19T06:03:56;74.85;;;37.63;;
11486;SDS011;10510;47.942;9.442;2022-08-19T06:05:57;75.28;;;37.22;;
11486;SDS011;10510;47.942;9.442;2022-08-19T06:07:59;69.90;;;36.38;;
11486;SDS011;10510;47.942;9.442;2022-08-19T06:09:59;70.22;;;35.80;;
11486;SDS011;10510;47.942;9.442;2022-08-19T06:11:59;81.95;;;38.58;;
11486;SDS011;10510;47.942;9.442;2022-08-19T06:14:02;70.85;;;35.47;;
11486;SDS011;10510;47.942;9.442;2022-08-19T06:16:04;71.13;;;36.60;;
11486;SDS011;10510;47.942;9.442;2022-08-19T06:18:04;75.53;;;35.25;;
11486;SDS011;10510;47.942;9.442;2022-08-19T06:20:06;69.95;;;35.97;;
11486;SDS011;10510;47.942;9.442;2022-08-19T06:22:08;67.38;;;35.83;;
11486;SDS011;10510;47.942;9.442;2022-08-19T06:24:12;73.15;;;37.10;;
11486;SDS011;10510;47.942;9.442;2022-08-19T06:26:15;74.50;;;37.15;;
11486;SDS011;10510;47.942;9.442;2022-08-19T06:28:15;70.70;;;35.50;;
11486;SDS011;10510;47.942;9.442;2022-08-19T06:30:16;72.40;;;37.08;;
11486;SDS011;10510;47.942;9.442;2022-08-19T06:32:16;71.72;;;36.38;;
11486;SDS011;10510;47.942;9.442;2022-08-19T06:34:18;83.22;;;37.92;;
11486;SDS011;10510;47.942;9.442;2022-08-19T06:36:20;71.10;;;37.03;;
11486;SDS011;10510;47.942;9.442;2022-08-19T06:40:27;66.47;;;37.22;;
11486;SDS011;10510;47.942;9.442;2022-08-19T06:42:28;71.10;;;37.25;;
11486;SDS011;10510;47.942;9.442;2022-08-19T06:44:29;69.22;;;37.30;;
11486;SDS011;10510;47.942;9.442;2022-08-19T06:46:34;67.50;;;36.72;;
11486;SDS011;10510;47.942;9.442;2022-08-19T06:48:35;70.90;;;37.15;;
11486;SDS011;10510;47.942;9.442;2022-08-19T06:50:35;72.55;;;36.97;;
11486;SDS011;10510;47.942;9.442;2022-08-19T06:52:36;72.07;;;37.70;;
11486;SDS011;10510;47.942;9.442;2022-08-19T06:54:37;71.22;;;38.08;;
11486;SDS011;10510;47.942;9.442;2022-08-19T06:56:39;73.20;;;37.72;;
11486;SDS011;10510;47.942;9.442;2022-08-19T06:58:39;71.82;;;38.55;;
11486;SDS011;10510;47.942;9.442;2022-08-19T07:00:40;65.90;;;36.85;;
11486;SDS011;10510;47.942;9.442;2022-08-19T07:02:41;77.43;;;38.25;;
11486;SDS011;10510;47.942;9.442;2022-08-19T07:04:41;76.45;;;40.92;;
11486;SDS011;10510;47.942;9.442;2022-08-19T07:06:42;76.75;;;39.75;;
11486;SDS011;10510;47.942;9.442;2022-08-19T07:08:44;73.30;;;37.78;;
11486;SDS011;10510;47.942;9.442;2022-08-19T07:10:46;68.53;;;38.03;;
11486;SDS011;10510;47.942;9.442;2022-08-19T07:12:47;79.93;;;40.50;;
11486;SDS011;10510;47.942;9.442;2022-08-19T07:14:49;78.55;;;39.58;;
11486;SDS011;10510;47.942;9.442;2022-08-19T07:16:50;82.30;;;41.42;;
11486;SDS011;10510;47.942;9.442;2022-08-19T07:18:51;77.95;;;40.42;;
11486;SDS011;10510;47.942;9.442;2022-08-19T07:21:01;76.93;;;39.90;;
11486;SDS011;10510;47.942;9.442;2022-08-19T07:23:02;78.13;;;40.85;;
11486;SDS011;10510;47.942;9.442;2022-08-19T07:25:03;79.80;;;39.45;;
11486;SDS011;10510;47.942;9.442;2022-08-19T07:27:06;76.18;;;39.50;;
11486;SDS011;10510;47.942;9.442;2022-08-19T07:29:07;79.15;;;42.13;;
11486;SDS011;10510;47.942;9.442;2022-08-19T07:31:09;79.15;;;40.33;;
11486;SDS011;10510;47.942;9.442;2022-08-19T07:33:11;82.43;;;40.60;;
11486;SDS011;10510;47.942;9.442;2022-08-19T07:35:12;82.75;;;41.50;;
11486;SDS011;10510;47.942;9.442;2022-08-19T07:37:12;86.20;;;41.13;;
11486;SDS011;10510;47.942;9.442;2022-08-19T07:39:15;87.97;;;40.92;;
11486;SDS011;10510;47.942;9.442;2022-08-19T07:41:21;93.50;;;43.92;;
11486;SDS011;10510;47.942;9.442;2022-08-19T07:43:23;84.68;;;41.42;;
11486;SDS011;10510;47.942;9.442;2022-08-19T07:45:25;89.50;;;43.17;;
11486;SDS011;10510;47.942;9.442;2022-08-19T07:47:25;83.68;;;42.97;;
11486;SDS011;10510;47.942;9.442;2022-08-19T07:49:28;86.75;;;41.83;;
11486;SDS011;10510;47.942;9.442;2022-08-19T07:51:28;95.75;;;45.63;;
11486;SDS011;10510;47.942;9.442;2022-08-19T07:53:29;86.97;;;43.35;;
11486;SDS011;10510;47.942;9.442;2022-08-19T07:55:30;96.10;;;45.70;;
11486;SDS011;10510;47.942;9.442;2022-08-19T07:57:30;90.65;;;44.55;;
11486;SDS011;10510;47.942;9.442;2022-08-19T07:59:31;94.20;;;45.28;;
11486;SDS011;10510;47.942;9.442;2022-08-19T08:01:31;93.90;;;45.08;;
11486;SDS011;10510;47.942;9.442;2022-08-19T08:03:32;98.50;;;45.97;;
11486;SDS011;10510;47.942;9.442;2022-08-19T08:05:52;94.75;;;44.63;;
11486;SDS011;10510;47.942;9.442;2022-08-19T08:08:11;94.30;;;45.95;;
11486;SDS011;10510;47.942;9.442;2022-08-19T08:10:31;100.32;;;45.58;;
11486;SDS011;10510;47.942;9.442;2022-08-19T08:12:33;99.43;;;46.67;;
11486;SDS011;10510;47.942;9.442;2022-08-19T08:14:43;106.03;;;47.13;;
11486;SDS011;10510;47.942;9.442;2022-08-19T08:16:46;110.00;;;48.40;;
11486;SDS011;10510;47.942;9.442;2022-08-19T08:18:47;103.93;;;47.90;;
11486;SDS011;10510;47.942;9.442;2022-08-19T08:20:47;110.90;;;49.63;;
11486;SDS011;10510;47.942;9.442;2022-08-19T08:22:47;108.03;;;49.70;;
11486;SDS011;10510;47.942;9.442;2022-08-19T08:25:14;113.35;;;48.05;;
11486;SDS011;10510;47.942;9.442;2022-08-19T08:27:17;110.05;;;47.45;;
11486;SDS011;10510;47.942;9.442;2022-08-19T08:29:18;100.63;;;46.95;;
11486;SDS011;10510;47.942;9.442;2022-08-19T08:31:19;102.20;;;47.38;;
11486;SDS011;10510;47.942;9.442;2022-08-19T08:33:21;104.15;;;47.85;;
11486;SDS011;10510;47.942;9.442;2022-08-19T08:35:23;100.03;;;45.53;;
11486;SDS011;10510;47.942;9.442;2022-08-19T08:37:24;104.45;;;49.13;;
11486;SDS011;10510;47.942;9.442;2022-08-19T08:39:24;106.05;;;48.10;;
11486;SDS011;10510;47.942;9.442;2022-08-19T08:41:33;111.47;;;49.10;;
11486;SDS011;10510;47.942;9.442;2022-08-19T08:43:40;108.35;;;48.85;;
11486;SDS011;10510;47.942;9.442;2022-08-19T08:45:47;113.03;;;49.10;;
11486;SDS011;10510;47.942;9.442;2022-08-19T08:47:55;113.72;;;47.60;;
11486;SDS011;10510;47.942;9.442;2022-08-19T08:50:08;112.38;;;48.78;;
11486;SDS011;10510;47.942;9.442;2022-08-19T08:52:26;99.57;;;46.95;;
11486;SDS011;10510;47.942;9.442;2022-08-19T08:54:48;108.00;;;49.63;;
11486;SDS011;10510;47.942;9.442;2022-08-19T08:56:51;103.00;;;45.33;;
11486;SDS011;10510;47.942;9.442;2022-08-19T08:59:02;112.72;;;46.97;;
11486;SDS011;10510;47.942;9.442;2022-08-19T09:01:10;109.05;;;47.03;;
11486;SDS011;10510;47.942;9.442;2022-08-19T09:03:29;106.57;;;48.90;;
11486;SDS011;10510;47.942;9.442;2022-08-19T09:05:33;111.68;;;47.45;;
11486;SDS011;10510;47.942;9.442;2022-08-19T09:07:46;102.95;;;46.15;;
11486;SDS011;10510;47.942;9.442;2022-08-19T09:10:02;106.28;;;47.10;;
11486;SDS011;10510;47.942;9.442;2022-08-19T09:12:31;100.10;;;44.67;;
11486;SDS011;10510;47.942;9.442;2022-08-19T09:14:57;114.40;;;47.83;;
11486;SDS011;10510;47.942;9.442;2022-08-19T09:17:01;103.45;;;47.53;;
11486;SDS011;10510;47.942;9.442;2022-08-19T09:19:08;114.70;;;48.40;;
11486;SDS011;10510;47.942;9.442;2022-08-19T09:21:08;106.32;;;46.75;;
11486;SDS011;10510;47.942;9.442;2022-08-19T09:23:09;100.82;;;46.63;;
11486;SDS011;10510;47.942;9.442;2022-08-19T09:25:12;117.32;;;47.85;;
11486;SDS011;10510;47.942;9.442;2022-08-19T09:27:14;104.55;;;47.45;;
11486;SDS011;10510;47.942;9.442;2022-08-19T09:29:15;103.72;;;47.20;;
11486;SDS011;10510;47.942;9.442;2022-08-19T09:31:16;113.05;;;48.10;;
11486;SDS011;10510;47.942;9.442;2022-08-19T09:33:19;107.80;;;47.58;;
11486;SDS011;10510;47.942;9.442;2022-08-19T09:35:24;99.13;;;47.35;;
11486;SDS011;10510;47.942;9.442;2022-08-19T09:37:26;106.10;;;48.45;;
11486;SDS011;10510;47.942;9.442;2022-08-19T09:39:27;110.10;;;49.70;;
11486;SDS011;10510;47.942;9.442;2022-08-19T09:41:27;101.07;;;46.72;;
11486;SDS011;10510;47.942;9.442;2022-08-19T09:43:27;110.13;;;48.70;;
11486;SDS011;10510;47.942;9.442;2022-08-19T09:45:28;107.47;;;46.65;;
11486;SDS011;10510;47.942;9.442;2022-08-19T09:47:28;102.35;;;45.63;;
11486;SDS011;10510;47.942;9.442;2022-08-19T09:49:29;100.90;;;45.60;;
11486;SDS011;10510;47.942;9.442;2022-08-19T09:51:29;100.18;;;46.47;;
11486;SDS011;10510;47.942;9.442;2022-08-19T09:53:29;100.05;;;45.13;;
11486;SDS011;10510;47.942;9.442;2022-08-19T09:55:30;102.93;;;46.00;;
11486;SDS011;10510;47.942;9.442;2022-08-19T09:57:30;102.70;;;46.63;;
11486;SDS011;10510;47.942;9.442;2022-08-19T09:59:30;98.05;;;47.33;;
11486;SDS011;10510;47.942;9.442;2022-08-19T10:01:31;102.07;;;46.30;;
11486;SDS011;10510;47.942;9.442;2022-08-19T10:03:33;106.43;;;46.97;;
11486;SDS011;10510;47.942;9.442;2022-08-19T10:05:35;106.85;;;47.53;;
11486;SDS011;10510;47.942;9.442;2022-08-19T10:07:50;96.45;;;44.83;;
11486;SDS011;10510;47.942;9.442;2022-08-19T10:09:50;93.15;;;44.65;;
11486;SDS011;10510;47.942;9.442;2022-08-19T10:11:50;90.10;;;42.80;;
11486;SDS011;10510;47.942;9.442;2022-08-19T10:13:51;86.07;;;41.63;;
11486;SDS011;10510;47.942;9.442;2022-08-19T10:15:52;90.82;;;43.08;;
11486;SDS011;10510;47.942;9.442;2022-08-19T10:17:55;85.53;;;41.88;;
11486;SDS011;10510;47.942;9.442;2022-08-19T10:19:55;84.15;;;39.65;;
11486;SDS011;10510;47.942;9.442;2022-08-19T10:21:55;92.55;;;41.28;;
11486;SDS011;10510;47.942;9.442;2022-08-19T10:23:57;82.50;;;40.25;;
11486;SDS011;10510;47.942;9.442;2022-08-19T10:26:00;77.97;;;37.83;;
11486;SDS011;10510;47.942;9.442;2022-08-19T10:28:00;80.50;;;40.42;;
11486;SDS011;10510;47.942;9.442;2022-08-19T10:30:01;78.35;;;39.80;;
11486;SDS011;10510;47.942;9.442;2022-08-19T10:32:02;79.05;;;37.88;;
11486;SDS011;10510;47.942;9.442;2022-08-19T10:34:07;83.13;;;39.22;;
11486;SDS011;10510;47.942;9.442;2022-08-19T10:36:13;75.50;;;37.10;;
11486;SDS011;10510;47.942;9.442;2022-08-19T10:38:17;74.20;;;38.15;;
11486;SDS011;10510;47.942;9.442;2022-08-19T10:40:17;79.03;;;37.45;;
11486;SDS011;10510;47.942;9.442;2022-08-19T10:42:17;69.07;;;34.20;;
11486;SDS011;10510;47.942;9.442;2022-08-19T10:44:18;68.32;;;33.53;;
11486;SDS011;10510;47.942;9.442;2022-08-19T10:46:20;63.38;;;34.60;;
11486;SDS011;10510;47.942;9.442;2022-08-19T10:48:23;65.93;;;33.58;;
11486;SDS011;10510;47.942;9.442;2022-08-19T10:50:23;56.42;;;32.47;;
11486;SDS011;10510;47.942;9.442;2022-08-19T10:52:43;57.90;;;32.83;;
11486;SDS011;10510;47.942;9.442;2022-08-19T10:54:45;59.05;;;32.28;;
11486;SDS011;10510;47.942;9.442;2022-08-19T10:57:04;58.33;;;32.17;;
11486;SDS011;10510;47.942;9.442;2022-08-19T10:59:05;64.78;;;33.15;;
11486;SDS011;10510;47.942;9.442;2022-08-19T11:01:05;62.22;;;32.28;;
11486;SDS011;10510;47.942;9.442;2022-08-19T11:03:05;62.17;;;32.50;;
11486;SDS011;10510;47.942;9.442;2022-08-19T11:05:06;68.38;;;34.35;;
11486;SDS011;10510;47.942;9.442;2022-08-19T11:07:07;57.38;;;30.90;;
11486;SDS011;10510;47.942;9.442;2022-08-19T11:09:08;61.65;;;33.25;;
11486;SDS011;10510;47.942;9.442;2022-08-19T11:11:08;62.38;;;32.33;;
11486;SDS011;10510;47.942;9.442;2022-08-19T11:13:09;60.60;;;32.25;;
11486;SDS011;10510;47.942;9.442;2022-08-19T11:15:09;64.63;;;33.10;;
11486;SDS011;10510;47.942;9.442;2022-08-19T11:17:10;60.75;;;31.92;;
11486;SDS011;10510;47.942;9.442;2022-08-19T11:19:13;69.65;;;34.47;;
11486;SDS011;10510;47.942;9.442;2022-08-19T11:23:19;76.40;;;35.05;;
11486;SDS011;10510;47.942;9.442;2022-08-19T11:25:19;66.18;;;33.78;;
11486;SDS011;10510;47.942;9.442;2022-08-19T11:27:19;62.47;;;33.47;;
11486;SDS011;10510;47.942;9.442;2022-08-19T11:29:20;65.90;;;32.70;;
11486;SDS011;10510;47.942;9.442;2022-08-19T11:31:22;62.08;;;32.60;;
11486;SDS011;10510;47.942;9.442;2022-08-19T11:33:24;59.25;;;32.65;;
11486;SDS011;10510;47.942;9.442;2022-08-19T11:35:26;70.30;;;33.17;;
11486;SDS011;10510;47.942;9.442;2022-08-19T11:37:26;60.85;;;33.83;;
11486;SDS011;10510;47.942;9.442;2022-08-19T11:39:27;62.90;;;33.83;;
11486;SDS011;10510;47.942;9.442;2022-08-19T11:41:30;60.92;;;31.73;;
11486;SDS011;10510;47.942;9.442;2022-08-19T11:43:31;57.00;;;32.10;;
11486;SDS011;10510;47.942;9.442;2022-08-19T11:45:31;56.33;;;29.75;;
11486;SDS011;10510;47.942;9.442;2022-08-19T11:47:31;58.13;;;32.47;;
11486;SDS011;10510;47.942;9.442;2022-08-19T11:49:32;50.90;;;27.75;;
11486;SDS011;10510;47.942;9.442;2022-08-19T11:51:36;49.50;;;27.83;;
11486;SDS011;10510;47.942;9.442;2022-08-19T11:53:36;48.28;;;27.48;;
11486;SDS011;10510;47.942;9.442;2022-08-19T11:55:38;42.42;;;25.75;;
11486;SDS011;10510;47.942;9.442;2022-08-19T11:57:42;42.67;;;24.83;;
11486;SDS011;10510;47.942;9.442;2022-08-19T11:59:47;45.20;;;25.45;;